Flight Track Log - Related Links

Times and Time Zones

All times are in EST time to prevent confusion due to time zone crossing. See the SUB1311 flight status page for this flight to view local times or setup timezone preferences in your user account.

Time Position Orientation Groundspeed Altitude Reporting Facility
EST Latitude Longitude Course Direction KTS MPH feet Rate Location/Type
Mon 07:31:22 AM 33.6333 -84.4667 216° Southwest 185 213 2,600  Level Atlanta TRACON
Mon 07:31:59 AM 33.5994 -84.4778 195° South 283 326 3,400 1,423 Climbing Atlanta Center
Mon 07:32:59 AM 33.5450 -84.4900 191° South 242 278 4,900 800 Climbing Atlanta Center
Mon 07:33:59 AM 33.4867 -84.5022 190° South 213 245 5,000 50 Climbing Atlanta Center
Mon 07:34:59 AM 33.4489 -84.5567 230° Southwest 199 229 5,000  Level Atlanta Center
Mon 07:35:59 AM 33.4297 -84.6239 251° West 228 262 5,000 500 Level Atlanta Center
Mon 07:36:00 AM 33.3783 -84.6626 216° Southwest  Level Estimated
Mon 07:36:59 AM 33.4294 -84.6958 270° West 234 269 6,000  Level Atlanta Center
Mon 07:37:59 AM 33.4331 -84.7656 274° West 213 245 6,000 750 Level Atlanta Center
Mon 07:38:59 AM 33.4347 -84.8331 272° West 213 245 7,500 1,350 Climbing Atlanta Center
Mon 07:39:59 AM 33.4386 -84.8803 276° West 190 219 8,700 700 Climbing Atlanta Center
Mon 07:40:59 AM 33.4444 -84.9400 277° West 176 203 8,900 300 Climbing Atlanta Center
Mon 07:41:59 AM 33.4461 -85.0122 272° West 205 236 9,300 950 Climbing Atlanta Center
Mon 07:42:59 AM 33.4517 -85.0794 276° West 210 242 10,800 850 Climbing Atlanta Center
Mon 07:43:59 AM 33.4553 -85.1419 274° West 204 235 11,000 100 Climbing Atlanta Center
Mon 07:44:59 AM 33.4547 -85.2214 270° West 204 235 11,000  Level Atlanta Center
Mon 07:45:59 AM 33.4603 -85.2964 275° West 220 253 11,000 700 Level Atlanta Center
Mon 07:46:59 AM 33.4594 -85.3636 269° West 214 246 12,400 1,250 Climbing Atlanta Center
Mon 07:47:59 AM 33.4547 -85.4181 264° West 185 213 13,500 750 Climbing Atlanta Center
Mon 07:48:59 AM 33.4436 -85.4728 256° West 171 197 13,900 250 Climbing Atlanta Center
Mon 07:49:59 AM 33.3869 -85.5042 205° Southwest 189 217 14,000  Climbing Atlanta Center
Mon 07:50:59 AM 33.3239 -85.5281 198° South 226 260 13,900  Descending Atlanta Center
Mon 07:51:59 AM 33.2631 -85.5517 198° South 252 290 14,000 50 Climbing Atlanta Center
Mon 07:52:59 AM 33.1961 -85.5803 200° South 252 290 14,000 100 Level Atlanta Center
Mon 07:53:59 AM 33.1308 -85.6092 200° South 252 290 14,200 700 Climbing Atlanta Center
Mon 07:54:59 AM 33.0722 -85.6378 202° Southwest 246 283 15,400 900 Climbing Atlanta Center
Mon 07:55:59 AM 33.0156 -85.6589 197° South 231 266 16,000 300 Climbing Atlanta Center
Mon 07:56:59 AM 32.9608 -85.6878 204° Southwest 225 259 16,000 -50 Level Atlanta Center
Mon 07:57:59 AM 32.8978 -85.7211 204° Southwest 225 259 15,900 -50 Descending Atlanta Center
Mon 07:58:59 AM 32.8347 -85.7497 201° Southwest 236 272 15,900 50 Level Atlanta Center
Mon 07:59:59 AM 32.7717 -85.7806 202° Southwest 241 277 16,000 50 Climbing Atlanta Center
Mon 08:00:59 AM 32.7086 -85.8114 202° Southwest 247 284 16,000  Level Atlanta Center
Mon 08:01:59 AM 32.6436 -85.8397 200° South 252 290 16,000 50 Level Atlanta Center
Mon 08:02:59 AM 32.5783 -85.8656 198° South 252 290 16,100  Climbing Atlanta Center
Mon 08:03:59 AM 32.5194 -85.8986 205° Southwest 252 290 16,000  Descending Atlanta Center
Mon 08:04:59 AM 32.4586 -85.9269 201° Southwest 252 290 16,100  Climbing Atlanta Center
Mon 08:05:59 AM 32.3869 -85.9597 201° Southwest 252 290 16,000 -50 Descending Atlanta Center
Mon 08:06:59 AM 32.3239 -85.9881 201° Southwest 252 290 16,000  Level Atlanta Center
Mon 08:07:59 AM 32.2608 -86.0186 202° Southwest 252 290 16,000  Level Atlanta Center
Mon 08:08:59 AM 32.1978 -86.0467 201° Southwest 252 290 16,000  Level Atlanta Center
Mon 08:09:59 AM 32.1369 -86.0772 203° Southwest 252 290 16,000  Level Atlanta Center
Mon 08:10:59 AM 32.0694 -86.1075 201° Southwest 252 290 16,000  Level Atlanta Center
Mon 08:11:59 AM 32.0106 -86.1381 204° Southwest 252 290 16,000  Level Atlanta Center
Mon 08:13:52 AM 31.8981 -86.1936 203° Southwest 251 289 16,000  Level Jacksonville Center
Mon 08:14:52 AM 31.8347 -86.2206 200° South 251 289 16,000  Level Jacksonville Center
Mon 08:15:52 AM 31.7714 -86.2503 202° Southwest 251 289 16,000 50 Level Jacksonville Center
Mon 08:16:52 AM 31.7081 -86.2772 200° South 251 289 16,100  Climbing Jacksonville Center
Mon 08:17:52 AM 31.6467 -86.3092 204° Southwest 251 289 16,000 -50 Descending Jacksonville Center
Mon 08:18:52 AM 31.5853 -86.3361 201° Southwest 251 289 16,000  Level Jacksonville Center
Mon 08:19:52 AM 31.5219 -86.3653 201° Southwest 246 283 16,000 50 Level Jacksonville Center
Mon 08:20:52 AM 31.4586 -86.3922 200° South 246 283 16,100  Climbing Jacksonville Center
Mon 08:21:53 AM 31.3972 -86.4239 204° Southwest 246 283 16,000 -50 Descending Jacksonville Center
Mon 08:22:52 AM 31.3336 -86.4556 203° Southwest 251 289 16,000  Level Jacksonville Center
Mon 08:23:52 AM 31.2700 -86.4847 201° Southwest 251 289 16,000  Level Jacksonville Center
Mon 08:24:52 AM 31.2047 -86.5139 201° Southwest 251 289 16,000  Level Jacksonville Center
Mon 08:25:52 AM 31.1411 -86.5406 200° South 251 289 16,000 -205 Level Jacksonville Center
Mon 08:26:20 AM 31.1133 -86.5639 216° Southwest 230 265 15,700 -800 Descending Jacksonville Center
Mon 08:26:52 AM 31.0919 -86.5847 220° Southwest 246 283 15,200 -1,102 Descending Jacksonville Center
Mon 08:27:09 AM 31.0808 -86.6061 239° Southwest 222 255 14,800 -1,200 Descending Jacksonville Center
Mon 08:27:52 AM 31.0650 -86.6467 246° West 219 252 14,000 -1,300 Descending Jacksonville Center
Mon 08:28:09 AM 31.0514 -86.6803 245° Southwest 232 267 13,500 -1,000 Descending Jacksonville Center
Mon 08:28:52 AM 31.0381 -86.7161 247° West 230 265 13,000 -885 Descending Jacksonville Center
Mon 08:29:10 AM 31.0247 -86.7422 239° Southwest 231 266 12,600 -1,000 Descending Jacksonville Center
Mon 08:29:52 AM 31.0108 -86.7828 248° West 230 265 12,000 -1,082 Descending Jacksonville Center
Mon 08:30:11 AM 30.9975 -86.8136 243° Southwest 229 264 11,500 -1,000 Descending Jacksonville Center
Mon 08:30:52 AM 30.9817 -86.8494 243° Southwest 230 265 11,000 -1,100 Descending Jacksonville Center
Mon 08:31:11 AM 30.9639 -86.8800 236° Southwest 232 267 10,400 -1,200 Descending Jacksonville Center
Mon 08:31:52 AM 30.9522 -86.9183 250° West 235 270 9,800 -1,082 Descending Jacksonville Center
Mon 08:32:12 AM 30.9367 -86.9492 240° Southwest 238 274 9,300 -1,200 Descending Jacksonville Center
Mon 08:32:52 AM 30.9231 -86.9850 246° West 235 270 8,600 -1,377 Descending Jacksonville Center
Mon 08:33:13 AM 30.9031 -87.0203 237° Southwest 241 277 7,900 -1,600 Descending Jacksonville Center
Mon 08:33:52 AM 30.8894 -87.0561 246° West 240 276 7,000 -1,500 Descending Jacksonville Center
Mon 08:34:13 AM 30.8717 -87.0892 238° Southwest 240 276 6,400 -1,475 Descending Jacksonville Center
Mon 08:34:53 AM 30.8622 -87.1225 252° West 240 276 5,500 -1,770 Descending Jacksonville Center
Mon 08:35:14 AM 30.8444 -87.1508 234° Southwest 218 251 4,600 -1,932 Descending Jacksonville Center
Mon 08:35:52 AM 30.8350 -87.1844 252° West 235 270 3,600 -1,500 Descending Jacksonville Center
Mon 08:36:14 AM 30.8194 -87.2150 239° Southwest 208 239 3,100 -361 Descending Jacksonville Center
Mon 08:37:15 AM 30.7842 -87.2667 232° Southwest 211 243 3,100 -49 Level Jacksonville Center
Mon 08:38:16 AM 30.7261 -87.2592 174° South 215 247 3,000 -99 Descending Jacksonville Center
Mon 08:39:16 AM 30.6703 -87.2444 167° South 215 247 2,900 -248 Descending Jacksonville Center
Mon 08:40:17 AM 30.6164 -87.2300 167° South 195 224 2,500 -446 Descending Jacksonville Center
Mon 08:41:17 AM 30.5689 -87.2181 168° South 180 207 2,000 -694 Descending Jacksonville Center
Mon 08:42:18 AM 30.5233 -87.2064 168° South 154 177 1,100 -836 Descending Jacksonville Center
Mon 08:43:19 AM 30.4842 -87.1925 163° South 133 153 300 -787 Descending Jacksonville Center
Mon 08:45:00 AM 30.4734 -87.1866 168° South  Level Estimated

Login

Don't have an account? Register now (free) for customized features, flight alerts, and more!